createdAt,value
2022-09-14T00:01:14.306Z,93.47
2022-09-14T00:03:40.258Z,93.38
2022-09-14T00:06:09.245Z,93.40
2022-09-14T00:08:35.892Z,93.24
2022-09-14T00:11:11.933Z,93.24
2022-09-14T00:13:40.819Z,93.07
2022-09-14T00:16:12.198Z,93.30
2022-09-14T00:18:38.689Z,93.48
2022-09-14T00:21:07.556Z,93.30
2022-09-14T00:23:39.096Z,93.54
2022-09-14T00:26:07.694Z,93.81
2022-09-14T00:28:43.838Z,94.19
2022-09-14T00:31:11.602Z,93.94
2022-09-14T00:33:38.563Z,94.03
2022-09-14T00:36:10.733Z,94.25
2022-09-14T00:38:37.778Z,94.13
2022-09-14T00:41:06.504Z,94.00
2022-09-14T00:43:33.643Z,93.72
2022-09-14T00:46:02.539Z,93.97
2022-09-14T00:48:30.093Z,94.07
2022-09-14T00:50:56.947Z,93.95
2022-09-14T00:53:23.682Z,93.60
2022-09-14T00:55:52.013Z,93.46
2022-09-14T00:58:18.398Z,93.35
2022-09-14T01:00:44.851Z,93.51
2022-09-14T01:03:11.317Z,93.85
2022-09-14T01:05:44.997Z,94.15
2022-09-14T01:08:25.171Z,94.71
2022-09-14T01:11:22.252Z,95.23
2022-09-14T01:14:03.563Z,95.51
2022-09-14T01:17:02.464Z,95.59
2022-09-14T01:19:47.612Z,95.62
2022-09-14T01:22:23.600Z,95.73
2022-09-14T01:24:56.710Z,95.57
2022-09-14T01:27:34.734Z,95.52
2022-09-14T01:30:22.902Z,95.42
2022-09-14T01:33:22.787Z,95.28
2022-09-14T01:35:59.841Z,95.14
2022-09-14T01:38:33.179Z,94.92
2022-09-14T01:41:03.985Z,94.67
2022-09-14T01:43:38.108Z,94.85
2022-09-14T01:46:09.853Z,94.58
2022-09-14T01:48:45.255Z,94.45
2022-09-14T01:51:15.284Z,94.31
2022-09-14T01:53:46.789Z,94.08
2022-09-14T01:56:22.999Z,93.90
2022-09-14T01:59:03.889Z,93.72
2022-09-14T02:01:35.935Z,93.42
2022-09-14T02:04:07.151Z,93.59
2022-09-14T02:06:37.572Z,94.18
2022-09-14T02:09:06.703Z,94.32
2022-09-14T02:11:33.125Z,94.62
2022-09-14T02:13:59.569Z,95.09
2022-09-14T02:16:26.317Z,95.41
2022-09-14T02:18:53.085Z,95.64
2022-09-14T02:21:27.426Z,95.73
2022-09-14T02:23:54.103Z,95.95
2022-09-14T02:26:22.959Z,96.07
2022-09-14T02:28:49.896Z,96.31
2022-09-14T02:31:37.012Z,96.33
2022-09-14T02:34:27.909Z,96.49
2022-09-14T02:37:04.072Z,96.51
2022-09-14T02:39:55.158Z,96.65
2022-09-14T02:42:39.152Z,96.65
2022-09-14T02:45:14.826Z,96.52
2022-09-14T02:48:13.865Z,96.38
2022-09-14T02:50:54.153Z,96.44
2022-09-14T02:53:37.018Z,96.35
2022-09-14T02:56:04.881Z,96.33
2022-09-14T02:58:43.315Z,96.24
2022-09-14T03:01:13.324Z,96.26
2022-09-14T03:03:40.372Z,96.10
2022-09-14T03:06:07.048Z,96.31
2022-09-14T03:08:34.210Z,96.32
2022-09-14T03:11:00.730Z,96.31
2022-09-14T03:13:27.184Z,96.10
2022-09-14T03:15:53.621Z,96.24
2022-09-14T03:18:20.434Z,96.14
2022-09-14T03:20:46.896Z,96.24
2022-09-14T03:23:14.077Z,96.34
2022-09-14T03:25:43.877Z,96.12
2022-09-14T03:28:12.079Z,95.73
2022-09-14T03:30:38.707Z,95.82
2022-09-14T03:33:05.516Z,95.48
2022-09-14T03:35:32.387Z,95.63
2022-09-14T03:37:59.614Z,95.94
2022-09-14T03:40:27.250Z,96.01
2022-09-14T03:42:53.846Z,96.07
2022-09-14T03:45:21.592Z,95.98
2022-09-14T03:47:49.279Z,95.94
2022-09-14T03:50:17.351Z,96.02
2022-09-14T03:52:43.880Z,96.16
2022-09-14T03:55:10.821Z,96.13
2022-09-14T03:57:37.617Z,96.03
2022-09-14T04:00:05.674Z,95.81
2022-09-14T04:02:32.179Z,95.78
2022-09-14T04:04:58.919Z,95.67
2022-09-14T04:07:25.475Z,95.82
2022-09-14T04:09:51.901Z,95.77
2022-09-14T04:12:18.349Z,95.55
2022-09-14T04:14:44.780Z,95.78
2022-09-14T04:17:11.152Z,95.75
2022-09-14T04:19:38.511Z,95.76
2022-09-14T04:22:05.322Z,95.95
2022-09-14T04:24:31.748Z,96.05
2022-09-14T04:26:58.556Z,95.86
2022-09-14T04:29:25.021Z,95.95
2022-09-14T04:31:51.560Z,95.87
2022-09-14T04:34:17.964Z,95.91
2022-09-14T04:36:44.543Z,95.83
2022-09-14T04:39:13.535Z,95.92
2022-09-14T04:41:40.328Z,95.96
2022-09-14T04:44:06.763Z,96.06
2022-09-14T04:46:35.732Z,95.93
2022-09-14T04:49:02.208Z,95.91
2022-09-14T04:51:30.789Z,96.06
2022-09-14T04:53:59.254Z,95.86
2022-09-14T04:56:27.294Z,95.86
2022-09-14T05:01:38.431Z,95.34
2022-09-14T05:04:06.270Z,95.37
2022-09-14T05:06:34.887Z,95.49
2022-09-14T05:09:04.396Z,95.32
2022-09-14T05:11:33.790Z,95.36
2022-09-14T05:14:01.809Z,95.06
2022-09-14T05:16:30.783Z,95.30
2022-09-14T05:19:01.246Z,95.20
2022-09-14T05:21:29.355Z,95.29
2022-09-14T05:24:01.119Z,95.31
2022-09-14T05:26:29.741Z,95.23
2022-09-14T05:28:58.434Z,94.75
2022-09-14T05:31:26.417Z,95.19
2022-09-14T05:33:53.639Z,94.99
2022-09-14T05:36:20.499Z,95.38
2022-09-14T05:38:47.119Z,95.46
2022-09-14T05:41:15.121Z,95.64
2022-09-14T05:43:42.302Z,95.78
2022-09-14T05:46:12.921Z,95.96
2022-09-14T05:48:40.273Z,95.70
2022-09-14T05:51:12.281Z,95.86
2022-09-14T05:53:38.764Z,95.95
2022-09-14T05:56:07.886Z,95.81
2022-09-14T05:58:35.606Z,96.07
2022-09-14T06:01:13.522Z,96.21
2022-09-14T06:03:40.564Z,96.29
2022-09-14T06:06:08.742Z,96.39
2022-09-14T06:08:36.170Z,96.61
2022-09-14T06:11:08.041Z,96.47
2022-09-14T06:13:34.882Z,96.65
2022-09-14T06:16:10.406Z,96.61
2022-09-14T06:18:38.129Z,96.69
2022-09-14T06:21:04.929Z,96.52
2022-09-14T06:23:32.410Z,96.61
2022-09-14T06:26:01.886Z,96.54
2022-09-14T06:28:29.480Z,96.56
2022-09-14T06:32:35.953Z,96.79
2022-09-14T06:35:03.566Z,96.98
2022-09-14T06:37:29.950Z,97.23
2022-09-14T06:39:56.370Z,97.35
2022-09-14T06:42:22.740Z,97.35
2022-09-14T06:44:49.126Z,97.41
2022-09-14T06:47:15.603Z,97.47
2022-09-14T06:49:42.001Z,97.50
2022-09-14T06:52:08.429Z,97.63
2022-09-14T06:54:34.975Z,97.69
2022-09-14T06:57:01.335Z,97.75
2022-09-14T06:59:27.940Z,97.84
2022-09-14T07:01:54.356Z,97.75
2022-09-14T07:04:21.548Z,97.80
2022-09-14T07:06:49.856Z,97.79
2022-09-14T07:09:18.029Z,97.80
2022-09-14T07:11:44.982Z,97.79
2022-09-14T07:14:12.070Z,97.81
2022-09-14T07:16:39.841Z,97.71
2022-09-14T07:19:11.143Z,97.71
2022-09-14T07:21:37.830Z,97.70
2022-09-14T07:24:04.334Z,97.66
2022-09-14T07:26:33.982Z,97.67
2022-09-14T07:29:03.706Z,97.77
2022-09-14T07:31:42.612Z,97.75
2022-09-14T07:34:09.468Z,97.71
2022-09-14T07:36:37.176Z,97.74
2022-09-14T07:39:05.864Z,97.75
2022-09-14T07:41:34.247Z,97.77
2022-09-14T07:44:03.542Z,97.66
2022-09-14T07:46:33.097Z,97.58
2022-09-14T07:49:02.267Z,97.45
2022-09-14T07:51:30.283Z,97.21
2022-09-14T07:53:57.503Z,96.97
2022-09-14T07:56:25.658Z,97.00
2022-09-14T07:59:11.387Z,97.04
2022-09-14T08:01:44.242Z,96.98
2022-09-14T08:04:11.062Z,97.06
2022-09-14T08:06:37.636Z,97.08
2022-09-14T08:09:10.925Z,96.97
2022-09-14T08:11:38.337Z,96.85
2022-09-14T08:14:10.191Z,96.94
2022-09-14T08:16:38.669Z,96.91
2022-09-14T08:19:10.694Z,96.95
2022-09-14T08:21:37.287Z,96.81
2022-09-14T08:24:04.299Z,96.87
2022-09-14T08:26:31.456Z,96.83
2022-09-14T08:29:00.474Z,96.72
2022-09-14T08:31:28.673Z,96.66
2022-09-14T08:34:00.769Z,96.52
2022-09-14T08:36:30.056Z,96.53
2022-09-14T08:38:56.871Z,96.40
2022-09-14T08:41:40.161Z,96.12
2022-09-14T08:44:20.896Z,96.36
2022-09-14T08:46:49.566Z,96.29
2022-09-14T08:49:34.085Z,96.42
2022-09-14T08:52:00.504Z,96.19
2022-09-14T08:54:26.972Z,96.33
2022-09-14T08:57:03.224Z,95.86
2022-09-14T09:00:00.811Z,95.80
2022-09-14T09:02:33.123Z,95.75
2022-09-14T09:05:24.899Z,95.91
2022-09-14T09:08:12.262Z,96.10
2022-09-14T09:10:40.876Z,96.22
2022-09-14T09:13:12.770Z,96.02
2022-09-14T09:15:49.972Z,96.14
2022-09-14T09:18:41.036Z,95.88
2022-09-14T09:21:13.926Z,96.24
2022-09-14T09:23:41.344Z,95.96
2022-09-14T09:26:26.547Z,95.29
2022-09-14T09:28:58.037Z,94.82
2022-09-14T09:31:29.749Z,94.91
2022-09-14T09:33:56.224Z,94.92
2022-09-14T09:36:22.708Z,94.63
2022-09-14T09:38:49.189Z,95.14
2022-09-14T09:41:24.688Z,94.74
2022-09-14T09:44:10.556Z,94.67
2022-09-14T09:46:59.127Z,94.43
2022-09-14T09:49:46.531Z,94.54
2022-09-14T09:52:15.521Z,94.19
2022-09-14T09:54:48.719Z,93.73
2022-09-14T09:57:31.532Z,93.74
2022-09-14T10:00:26.068Z,93.93
2022-09-14T10:02:53.999Z,94.47
2022-09-14T10:05:28.890Z,94.39
2022-09-14T10:08:04.483Z,93.95
2022-09-14T10:10:35.667Z,93.79
2022-09-14T10:13:05.128Z,93.71
2022-09-14T10:15:33.732Z,93.61
2022-09-14T10:18:07.539Z,93.49
2022-09-14T10:20:34.365Z,93.46
2022-09-14T10:23:19.261Z,93.69
2022-09-14T10:25:54.075Z,93.12
2022-09-14T10:28:29.160Z,92.98
2022-09-14T10:31:02.217Z,93.41
2022-09-14T10:33:30.177Z,93.27
2022-09-14T10:35:56.562Z,93.41
2022-09-14T10:38:39.639Z,93.60
2022-09-14T10:41:31.225Z,93.60
2022-09-14T10:44:27.813Z,93.82
2022-09-14T10:47:10.600Z,93.46
2022-09-14T10:49:59.105Z,93.54
2022-09-14T10:52:38.348Z,93.74
2022-09-14T10:55:39.993Z,93.55
2022-09-14T10:58:44.153Z,93.44
2022-09-14T11:01:13.786Z,92.65
2022-09-14T11:03:46.013Z,92.86
2022-09-14T11:06:31.519Z,93.11
2022-09-14T11:09:06.785Z,93.29
2022-09-14T11:11:47.766Z,93.48
2022-09-14T11:14:33.262Z,93.76
2022-09-14T11:17:12.826Z,93.34
2022-09-14T11:20:04.377Z,93.26
2022-09-14T11:23:02.528Z,93.11
2022-09-14T11:25:56.449Z,92.70
2022-09-14T11:28:33.238Z,92.72
2022-09-14T11:31:12.008Z,92.25
2022-09-14T11:33:51.475Z,92.12
2022-09-14T11:36:30.232Z,91.88
2022-09-14T11:39:07.213Z,91.40
2022-09-14T11:42:01.208Z,91.03
2022-09-14T11:44:39.398Z,90.87
2022-09-14T11:47:18.079Z,89.77
2022-09-14T11:50:06.444Z,88.90
2022-09-14T11:52:33.931Z,87.92
2022-09-14T11:55:02.042Z,87.50
2022-09-14T11:57:33.655Z,87.08
2022-09-14T12:00:25.697Z,86.06
2022-09-14T12:03:13.141Z,85.94
2022-09-14T12:05:40.691Z,86.20
2022-09-14T12:08:35.956Z,85.83
2022-09-14T12:11:26.381Z,85.66
2022-09-14T12:14:30.374Z,85.07
2022-09-14T12:20:32.077Z,84.15
2022-09-14T12:23:13.988Z,85.15
2022-09-14T12:25:55.452Z,85.19
2022-09-14T12:28:40.257Z,85.87
2022-09-14T12:31:12.742Z,86.39
2022-09-14T12:33:41.591Z,87.48
2022-09-14T12:36:20.945Z,87.18
2022-09-14T12:38:50.316Z,86.58
2022-09-14T12:41:19.870Z,86.66
2022-09-14T12:43:49.318Z,86.78
2022-09-14T12:46:21.896Z,87.33
2022-09-14T12:48:48.442Z,87.27
2022-09-14T12:51:26.837Z,87.42
2022-09-14T12:54:08.616Z,86.44
2022-09-14T12:56:47.040Z,87.03
2022-09-14T12:59:35.903Z,86.57
2022-09-14T13:02:23.974Z,86.63
2022-09-14T13:04:55.928Z,86.17
2022-09-14T13:07:23.848Z,86.52
2022-09-14T13:09:54.875Z,86.52
2022-09-14T13:12:33.906Z,86.45
2022-09-14T13:15:06.804Z,86.85
2022-09-14T13:17:33.428Z,86.51
2022-09-14T13:20:05.297Z,86.03
2022-09-14T13:22:33.216Z,85.55
2022-09-14T13:25:03.629Z,86.56
2022-09-14T13:27:35.992Z,86.37
2022-09-14T13:30:07.920Z,86.83
2022-09-14T13:32:36.717Z,87.39
2022-09-14T13:35:06.802Z,87.54
2022-09-14T13:37:33.448Z,88.09
2022-09-14T13:40:00.065Z,87.90
2022-09-14T13:42:27.289Z,88.90
2022-09-14T13:44:54.105Z,91.23
2022-09-14T13:47:23.467Z,92.74
2022-09-14T13:49:52.910Z,93.85
2022-09-14T13:52:49.698Z,94.57
2022-09-14T13:55:23.806Z,94.48
2022-09-14T13:58:08.875Z,94.86
2022-09-14T14:00:56.058Z,95.29
2022-09-14T14:03:39.561Z,95.45
2022-09-14T14:06:27.250Z,95.50
2022-09-14T14:09:06.846Z,95.65
2022-09-14T14:11:41.745Z,95.58
2022-09-14T14:14:30.152Z,95.48
2022-09-14T14:17:13.194Z,95.28
2022-09-14T14:19:43.761Z,95.43
2022-09-14T14:22:18.427Z,95.43
2022-09-14T14:25:12.315Z,95.64
2022-09-14T14:27:37.589Z,95.25
2022-09-14T14:30:30.974Z,95.26
2022-09-14T14:32:59.245Z,95.08
2022-09-14T14:35:29.490Z,95.10
2022-09-14T14:37:56.989Z,95.22
2022-09-14T14:40:27.147Z,95.10
2022-09-14T14:42:54.884Z,95.38
2022-09-14T14:45:26.295Z,95.10
2022-09-14T14:47:54.815Z,94.76
2022-09-14T14:50:27.449Z,95.25
2022-09-14T14:52:54.474Z,95.65
2022-09-14T14:55:22.244Z,95.73
2022-09-14T14:57:49.798Z,95.84
2022-09-14T15:00:22.168Z,95.49
2022-09-14T15:02:49.101Z,95.57
2022-09-14T15:05:16.571Z,95.65
2022-09-14T15:07:43.082Z,95.57
2022-09-14T15:10:13.969Z,95.64
2022-09-14T15:12:40.475Z,95.35
2022-09-14T15:15:17.878Z,95.26
2022-09-14T15:17:44.577Z,95.63
2022-09-14T15:20:12.105Z,95.88
2022-09-14T15:22:39.138Z,95.62
2022-09-14T15:25:06.801Z,95.25
2022-09-14T15:27:33.191Z,95.07
2022-09-14T15:29:59.732Z,95.05
2022-09-14T15:32:26.337Z,94.76
2022-09-14T15:34:55.505Z,93.01
2022-09-14T15:37:21.882Z,92.87
2022-09-14T15:39:50.533Z,92.99
2022-09-14T15:42:18.374Z,92.10
2022-09-14T15:44:45.031Z,92.57
2022-09-14T15:47:14.607Z,92.29
2022-09-14T15:49:42.378Z,92.44
2022-09-14T15:52:09.910Z,92.53
2022-09-14T15:54:37.770Z,92.54
2022-09-14T15:57:06.302Z,92.55
2022-09-14T15:59:33.288Z,92.48
2022-09-14T16:01:59.747Z,92.21
2022-09-14T16:04:26.729Z,91.78
2022-09-14T16:06:53.265Z,91.82
2022-09-14T16:09:22.346Z,90.92
2022-09-14T16:11:49.519Z,90.80
2022-09-14T16:14:16.217Z,91.07
2022-09-14T16:17:20.642Z,90.98
2022-09-14T16:19:49.515Z,91.11
2022-09-14T16:22:15.945Z,90.75
2022-09-14T16:24:42.372Z,91.23
2022-09-14T16:27:08.718Z,91.05
2022-09-14T16:29:35.142Z,90.98
2022-09-14T16:32:01.813Z,90.29
2022-09-14T16:34:29.647Z,89.78
2022-09-14T16:36:58.558Z,89.15
2022-09-14T16:39:27.816Z,89.08
2022-09-14T16:41:55.666Z,88.99
2022-09-14T16:44:24.429Z,88.69
2022-09-14T16:46:52.158Z,89.11
2022-09-14T16:49:21.354Z,89.46
2022-09-14T16:51:51.316Z,89.16
2022-09-14T16:54:21.763Z,89.48
2022-09-14T16:56:48.652Z,90.25
2022-09-14T16:59:16.564Z,90.27
2022-09-14T17:01:45.191Z,89.71
2022-09-14T17:04:14.760Z,90.16
2022-09-14T17:06:44.011Z,89.48
2022-09-14T17:09:14.362Z,89.71
2022-09-14T17:11:42.179Z,89.08
2022-09-14T17:14:13.014Z,88.93
2022-09-14T17:16:39.600Z,88.32
2022-09-14T17:19:06.166Z,88.10
2022-09-14T17:21:37.928Z,88.49
2022-09-14T17:24:05.802Z,88.50
2022-09-14T17:26:35.171Z,88.87
2022-09-14T17:29:11.034Z,89.32
2022-09-14T17:31:40.476Z,88.79
2022-09-14T17:34:09.011Z,88.80
2022-09-14T17:36:35.498Z,88.72
2022-09-14T17:39:06.764Z,88.43
2022-09-14T17:41:38.497Z,89.11
2022-09-14T17:44:06.517Z,89.45
2022-09-14T17:46:33.416Z,89.24
2022-09-14T17:49:01.071Z,89.92
2022-09-14T17:51:29.251Z,89.55
2022-09-14T17:53:57.794Z,89.58
2022-09-14T17:57:35.983Z,89.18
2022-09-14T18:00:03.597Z,89.40
2022-09-14T18:02:29.937Z,89.27
2022-09-14T18:04:56.340Z,89.81
2022-09-14T18:07:22.707Z,90.03
2022-09-14T18:09:49.310Z,89.83
2022-09-14T18:12:17.698Z,89.87
2022-09-14T18:14:44.194Z,90.01
2022-09-14T18:17:10.645Z,90.42
2022-09-14T18:19:37.063Z,90.63
2022-09-14T18:22:03.506Z,90.85
2022-09-14T18:24:29.950Z,90.82
2022-09-14T18:26:57.290Z,91.13
2022-09-14T18:29:24.111Z,90.91
2022-09-14T18:31:52.025Z,91.51
2022-09-14T18:34:20.736Z,91.57
2022-09-14T18:36:47.254Z,92.00
2022-09-14T18:39:14.212Z,91.73
2022-09-14T18:41:40.723Z,91.86
2022-09-14T18:44:07.184Z,91.27
2022-09-14T18:46:33.607Z,91.28
2022-09-14T18:49:01.663Z,91.66
2022-09-14T18:51:30.623Z,91.65
2022-09-14T18:54:03.633Z,91.12
2022-09-14T18:56:33.221Z,91.06
2022-09-14T18:59:00.776Z,91.15
2022-09-14T19:01:27.561Z,91.03
2022-09-14T19:03:56.119Z,91.09
2022-09-14T19:06:23.280Z,90.84
2022-09-14T19:08:50.124Z,91.28
2022-09-14T19:11:19.913Z,91.09
2022-09-14T19:13:47.496Z,91.27
2022-09-14T19:16:18.661Z,90.97
2022-09-14T19:18:47.066Z,91.51
2022-09-14T19:21:16.160Z,91.37
2022-09-14T19:23:43.186Z,91.46
2022-09-14T19:26:18.635Z,90.75
2022-09-14T19:28:45.646Z,91.07
2022-09-14T19:31:17.549Z,91.41
2022-09-14T19:33:45.729Z,91.46
2022-09-14T19:36:15.355Z,91.31
2022-09-14T19:38:42.210Z,91.21
2022-09-14T19:41:09.410Z,91.44
2022-09-14T19:43:36.679Z,91.18
2022-09-14T19:46:04.232Z,91.12
2022-09-14T19:48:31.529Z,91.15
2022-09-14T19:51:02.723Z,91.56
2022-09-14T19:53:30.399Z,91.51
2022-09-14T19:55:57.018Z,91.48
2022-09-14T19:58:26.137Z,91.76
2022-09-14T20:00:56.958Z,91.88
2022-09-14T20:03:24.017Z,92.12
2022-09-14T20:06:20.891Z,91.76
2022-09-14T20:08:48.708Z,91.66
2022-09-14T20:11:20.508Z,91.66
2022-09-14T20:13:48.423Z,91.23
2022-09-14T20:16:18.312Z,91.53
2022-09-14T20:18:46.922Z,91.71
2022-09-14T20:21:15.874Z,91.50
2022-09-14T20:24:04.295Z,91.59
2022-09-14T20:26:29.996Z,91.92
2022-09-14T20:28:59.871Z,91.60
2022-09-14T20:31:26.926Z,91.89
2022-09-14T20:33:53.859Z,91.99
2022-09-14T20:36:22.376Z,92.15
2022-09-14T20:38:54.043Z,91.78
2022-09-14T20:41:22.628Z,91.69
2022-09-14T20:43:49.201Z,92.23
2022-09-14T20:46:19.790Z,92.33
2022-09-14T20:48:48.039Z,91.99
2022-09-14T20:51:19.949Z,91.99
2022-09-14T20:53:47.655Z,92.29
2022-09-14T20:56:16.906Z,92.33
2022-09-14T20:58:43.793Z,92.30
2022-09-14T21:01:19.208Z,92.31
2022-09-14T21:03:47.457Z,92.10
2022-09-14T21:06:24.891Z,92.07
2022-09-14T21:08:52.206Z,92.53
2022-09-14T21:11:24.462Z,92.61
2022-09-14T21:13:52.762Z,92.35
2022-09-14T21:16:25.880Z,92.33
2022-09-14T21:18:56.002Z,92.22
2022-09-14T21:21:23.015Z,92.11
2022-09-14T21:23:50.385Z,92.06
2022-09-14T21:26:18.471Z,92.34
2022-09-14T21:28:45.345Z,91.93
2022-09-14T21:31:21.357Z,91.51
2022-09-14T21:33:51.268Z,91.66
2022-09-14T21:36:27.068Z,91.42
2022-09-14T21:38:55.738Z,91.37
2022-09-14T21:41:24.711Z,91.51
2022-09-14T21:43:52.129Z,91.45
2022-09-14T21:46:19.116Z,91.33
2022-09-14T21:48:45.840Z,91.41
2022-09-14T21:51:21.457Z,91.54
2022-09-14T21:53:50.489Z,91.99
2022-09-14T21:56:18.129Z,92.20
2022-09-14T21:58:45.056Z,92.13
2022-09-14T22:01:11.876Z,91.99
2022-09-14T22:03:38.924Z,91.96
2022-09-14T22:06:07.975Z,91.80
2022-09-14T22:08:35.378Z,91.44
2022-09-14T22:11:07.499Z,91.51
2022-09-14T22:13:34.499Z,91.01
2022-09-14T22:16:12.342Z,91.38
2022-09-14T22:18:41.862Z,91.11
2022-09-14T22:21:08.967Z,90.75
2022-09-14T22:23:35.636Z,90.71
2022-09-14T22:26:09.104Z,90.85
2022-09-14T22:28:42.529Z,90.76
2022-09-14T22:31:09.291Z,91.04
2022-09-14T22:33:36.179Z,90.94
2022-09-14T22:36:04.082Z,90.84
2022-09-14T22:38:34.238Z,90.64
2022-09-14T22:41:11.774Z,90.49
2022-09-14T22:43:39.600Z,90.47
2022-09-14T22:46:07.696Z,90.39
2022-09-14T22:48:34.483Z,90.05
2022-09-14T22:51:01.662Z,90.27
2022-09-14T22:53:29.411Z,89.88
2022-09-14T22:55:56.904Z,89.88
2022-09-14T22:58:26.311Z,90.13
2022-09-14T23:00:53.387Z,90.65
2022-09-14T23:03:20.341Z,90.56
2022-09-14T23:05:59.833Z,90.60
2022-09-14T23:08:27.160Z,90.75
2022-09-14T23:10:54.992Z,90.80
2022-09-14T23:13:22.101Z,90.57
2022-09-14T23:15:48.913Z,90.69
2022-09-14T23:18:15.561Z,90.64
2022-09-14T23:21:05.515Z,90.57
2022-09-14T23:23:32.300Z,90.88
2022-09-14T23:26:06.918Z,90.53
2022-09-14T23:28:33.781Z,90.56
2022-09-14T23:31:00.967Z,90.62
2022-09-14T23:33:28.735Z,90.92
2022-09-14T23:35:55.754Z,90.36
2022-09-14T23:38:23.011Z,89.73
2022-09-14T23:40:49.878Z,89.61
2022-09-14T23:43:18.133Z,89.59
2022-09-14T23:45:46.003Z,89.64
2022-09-14T23:48:14.217Z,89.75
2022-09-14T23:50:40.613Z,89.78
2022-09-14T23:53:07.365Z,89.67
2022-09-14T23:55:33.944Z,89.54
